createdAt,value
2022-09-28T00:00:01.912Z,14.80
2022-09-28T00:01:01.869Z,14.40
2022-09-28T00:02:03.192Z,14.60
2022-09-28T00:03:01.784Z,14.30
2022-09-28T00:04:01.658Z,13.90
2022-09-28T00:05:01.580Z,13.70
2022-09-28T00:06:01.617Z,14.40
2022-09-28T00:07:01.465Z,12.20
2022-09-28T00:08:01.411Z,13.20
2022-09-28T00:09:01.328Z,12.60
2022-09-28T00:10:01.359Z,12.10
2022-09-28T00:11:01.176Z,12.20
2022-09-28T00:12:01.128Z,12.60
2022-09-28T00:13:01.063Z,12.30
2022-09-28T00:14:01.773Z,12.90
2022-09-28T00:15:00.928Z,10.20
2022-09-28T00:16:00.935Z,11.30
2022-09-28T00:17:00.800Z,11.70
2022-09-28T00:18:00.727Z,11.10
2022-09-28T00:19:00.667Z,10.40
2022-09-28T00:20:00.648Z,11.70
2022-09-28T00:21:00.567Z,9.40
2022-09-28T00:22:00.481Z,9.30
2022-09-28T00:23:00.411Z,9.40
2022-09-28T00:24:00.370Z,10.40
2022-09-28T00:25:00.268Z,9.50
2022-09-28T00:26:00.972Z,9.00
2022-09-28T00:27:00.138Z,7.80
2022-09-28T00:28:00.107Z,9.60
2022-09-28T00:29:00.015Z,8.20
2022-09-28T00:29:59.969Z,7.40
2022-09-28T00:31:00.474Z,7.80
2022-09-28T00:32:00.186Z,8.50
2022-09-28T00:32:59.772Z,7.50
2022-09-28T00:33:59.707Z,9.10
2022-09-28T00:34:59.655Z,9.50
2022-09-28T00:35:59.570Z,8.00
2022-09-28T00:36:59.508Z,9.30
2022-09-28T00:37:59.723Z,8.90
2022-09-28T00:38:59.377Z,7.60
2022-09-28T00:39:59.318Z,8.50
2022-09-28T00:40:59.369Z,7.80
2022-09-28T00:41:59.210Z,8.10
2022-09-28T00:42:59.118Z,7.60
2022-09-28T00:43:59.068Z,7.40
2022-09-28T00:44:58.989Z,7.80
2022-09-28T00:45:58.992Z,8.10
2022-09-28T00:46:58.843Z,7.40
2022-09-28T00:47:58.795Z,8.00
2022-09-28T00:48:58.764Z,6.40
2022-09-28T00:49:58.662Z,7.90
2022-09-28T00:50:58.594Z,7.90
2022-09-28T00:51:58.525Z,7.90
2022-09-28T00:52:58.458Z,8.40
2022-09-28T00:53:58.413Z,8.20
2022-09-28T00:54:58.344Z,7.90
2022-09-28T00:55:58.321Z,8.40
2022-09-28T00:56:58.197Z,8.50
2022-09-28T00:57:58.170Z,7.70
2022-09-28T00:58:58.032Z,8.40
2022-09-28T00:59:58.016Z,8.50
2022-09-28T01:00:57.993Z,9.40
2022-09-28T01:01:58.739Z,8.60
2022-09-28T01:02:57.842Z,7.00
2022-09-28T01:03:57.762Z,8.20
2022-09-28T01:04:57.712Z,8.00
2022-09-28T01:05:57.633Z,8.00
2022-09-28T01:06:57.567Z,8.30
2022-09-28T01:07:58.314Z,8.60
2022-09-28T01:08:57.437Z,8.20
2022-09-28T01:09:57.377Z,8.90
2022-09-28T01:10:57.305Z,9.30
2022-09-28T01:11:57.242Z,9.00
2022-09-28T01:12:57.184Z,9.20
2022-09-28T01:13:57.884Z,9.20
2022-09-28T01:14:57.054Z,9.00
2022-09-28T01:15:57.026Z,9.20
2022-09-28T01:16:56.906Z,9.20
2022-09-28T01:17:56.877Z,9.30
2022-09-28T01:18:56.779Z,9.60
2022-09-28T01:19:57.503Z,11.10
2022-09-28T01:20:56.646Z,10.40
2022-09-28T01:21:56.594Z,9.90
2022-09-28T01:22:56.540Z,9.30
2022-09-28T01:23:56.465Z,8.80
2022-09-28T01:24:56.390Z,9.20
2022-09-28T01:25:57.114Z,8.70
2022-09-28T01:26:56.272Z,10.40
2022-09-28T01:27:56.225Z,8.60
2022-09-28T01:28:56.175Z,8.40
2022-09-28T01:29:56.074Z,8.60
2022-09-28T01:30:56.015Z,9.50
2022-09-28T01:31:56.810Z,12.00
2022-09-28T01:32:55.875Z,11.10
2022-09-28T01:33:55.803Z,11.20
2022-09-28T01:34:55.746Z,11.20
2022-09-28T01:35:55.694Z,12.10
2022-09-28T01:36:55.629Z,9.90
2022-09-28T01:37:55.585Z,12.80
2022-09-28T01:38:55.484Z,11.60
2022-09-28T01:39:55.418Z,12.50
2022-09-28T01:40:55.409Z,12.40
2022-09-28T01:41:55.299Z,11.40
2022-09-28T01:42:55.242Z,11.90
2022-09-28T01:43:55.493Z,13.20
2022-09-28T01:44:55.093Z,12.40
2022-09-28T01:45:55.109Z,13.00
2022-09-28T01:46:54.974Z,12.50
2022-09-28T01:47:54.902Z,13.10
2022-09-28T01:48:54.845Z,14.50
2022-09-28T01:49:54.796Z,13.90
2022-09-28T01:50:54.716Z,13.60
2022-09-28T01:51:54.638Z,13.60
2022-09-28T01:52:54.588Z,14.00
2022-09-28T01:53:54.527Z,12.80
2022-09-28T01:54:54.457Z,14.10
2022-09-28T01:55:54.396Z,13.50
2022-09-28T01:56:54.332Z,14.10
2022-09-28T01:57:54.265Z,14.30
2022-09-28T01:58:54.204Z,14.60
2022-09-28T01:59:54.139Z,14.50
2022-09-28T02:00:54.100Z,13.80
2022-09-28T02:01:54.825Z,13.10
2022-09-28T02:02:53.995Z,13.80
2022-09-28T02:03:53.870Z,13.60
2022-09-28T02:04:53.797Z,13.60
2022-09-28T02:05:53.788Z,14.70
2022-09-28T02:06:53.676Z,14.40
2022-09-28T02:07:53.652Z,14.30
2022-09-28T02:08:53.559Z,14.00
2022-09-28T02:09:53.473Z,15.20
2022-09-28T02:10:53.431Z,15.30
2022-09-28T02:11:53.351Z,14.20
2022-09-28T02:12:53.286Z,15.70
2022-09-28T02:13:54.766Z,14.50
2022-09-28T02:14:53.150Z,14.20
2022-09-28T02:15:53.145Z,15.50
2022-09-28T02:16:53.029Z,16.90
2022-09-28T02:17:52.972Z,18.30
2022-09-28T02:18:52.856Z,17.80
2022-09-28T02:19:53.613Z,19.20
2022-09-28T02:20:52.784Z,19.60
2022-09-28T02:21:52.717Z,21.00
2022-09-28T02:22:52.608Z,21.20
2022-09-28T02:23:52.523Z,22.30
2022-09-28T02:24:52.449Z,21.40
2022-09-28T02:25:52.401Z,21.70
2022-09-28T02:26:52.343Z,23.80
2022-09-28T02:27:52.322Z,23.70
2022-09-28T02:28:52.262Z,22.10
2022-09-28T02:29:52.198Z,23.70
2022-09-28T02:30:52.130Z,21.40
2022-09-28T02:31:53.661Z,23.90
2022-09-28T02:32:52.008Z,27.60
2022-09-28T02:33:51.937Z,25.90
2022-09-28T02:34:51.856Z,24.00
2022-09-28T02:35:51.808Z,24.70
2022-09-28T02:36:51.740Z,26.40
2022-09-28T02:37:51.689Z,25.80
2022-09-28T02:38:51.613Z,28.80
2022-09-28T02:39:51.552Z,27.00
2022-09-28T02:40:51.554Z,25.60
2022-09-28T02:41:51.380Z,25.40
2022-09-28T02:42:51.357Z,26.60
2022-09-28T02:43:52.047Z,25.70
2022-09-28T02:44:51.214Z,28.20
2022-09-28T02:45:51.217Z,28.70
2022-09-28T02:46:51.099Z,27.90
2022-09-28T02:47:51.032Z,28.60
2022-09-28T02:49:04.988Z,29.00
2022-09-28T02:49:52.194Z,28.30
2022-09-28T02:50:50.835Z,26.80
2022-09-28T02:51:50.762Z,28.00
2022-09-28T02:52:50.710Z,27.50
2022-09-28T02:53:50.644Z,29.40
2022-09-28T02:54:50.571Z,29.90
2022-09-28T02:55:52.788Z,27.20
2022-09-28T02:56:50.447Z,29.70
2022-09-28T02:57:50.386Z,29.20
2022-09-28T02:58:50.316Z,27.50
2022-09-28T02:59:50.242Z,23.60
2022-09-28T03:00:50.233Z,25.40
2022-09-28T03:01:52.601Z,26.60
2022-09-28T03:02:50.048Z,25.40
2022-09-28T03:03:49.980Z,28.50
2022-09-28T03:04:49.929Z,26.60
2022-09-28T03:05:49.811Z,25.70
2022-09-28T03:06:49.809Z,27.00
2022-09-28T03:07:49.752Z,28.50
2022-09-28T03:08:49.659Z,30.20
2022-09-28T03:09:49.609Z,25.80
2022-09-28T03:10:49.553Z,23.10
2022-09-28T03:11:49.466Z,29.20
2022-09-28T03:12:49.418Z,31.00
2022-09-28T03:13:51.680Z,29.30
2022-09-28T03:14:49.274Z,29.20
2022-09-28T03:15:49.236Z,27.70
2022-09-28T03:16:49.156Z,26.10
2022-09-28T03:17:49.078Z,25.00
2022-09-28T03:18:49.022Z,22.50
2022-09-28T03:19:48.974Z,24.00
2022-09-28T03:20:48.889Z,23.60
2022-09-28T03:21:48.837Z,25.10
2022-09-28T03:23:06.065Z,25.00
2022-09-28T03:23:48.696Z,22.50
2022-09-28T03:24:48.621Z,23.60
2022-09-28T03:25:48.579Z,26.10
2022-09-28T03:26:48.519Z,25.70
2022-09-28T03:27:48.429Z,24.70
2022-09-28T03:28:48.376Z,23.70
2022-09-28T03:29:48.316Z,24.80
2022-09-28T03:30:48.254Z,24.10
2022-09-28T03:31:51.277Z,23.70
2022-09-28T03:32:48.105Z,23.80
2022-09-28T03:33:48.040Z,23.30
2022-09-28T03:34:47.971Z,25.30
2022-09-28T03:35:47.941Z,25.00
2022-09-28T03:36:47.861Z,26.40
2022-09-28T03:37:47.824Z,25.10
2022-09-28T03:38:47.726Z,23.40
2022-09-28T03:39:47.655Z,27.00
2022-09-28T03:40:47.667Z,23.60
2022-09-28T03:41:47.520Z,24.70
2022-09-28T03:42:47.462Z,23.90
2022-09-28T03:43:47.402Z,22.70
2022-09-28T03:44:47.353Z,23.90
2022-09-28T03:45:47.319Z,23.40
2022-09-28T03:46:47.201Z,23.30
2022-09-28T03:47:47.147Z,26.30
2022-09-28T03:48:47.066Z,23.40
2022-09-28T03:49:47.876Z,24.30
2022-09-28T03:50:46.951Z,24.90
2022-09-28T03:51:46.901Z,26.20
2022-09-28T03:52:46.816Z,23.10
2022-09-28T03:53:46.742Z,22.90
2022-09-28T03:54:49.252Z,25.00
2022-09-28T03:55:48.746Z,25.80
2022-09-28T03:56:46.569Z,27.10
2022-09-28T03:57:46.502Z,24.80
2022-09-28T03:58:46.427Z,26.00
2022-09-28T03:59:46.356Z,23.20
2022-09-28T04:00:46.378Z,24.60
2022-09-28T04:01:46.283Z,25.00
2022-09-28T04:02:46.167Z,24.70
2022-09-28T04:03:46.101Z,25.50
2022-09-28T04:04:46.048Z,30.20
2022-09-28T04:05:45.933Z,28.20
2022-09-28T04:06:45.853Z,26.40
2022-09-28T04:07:45.811Z,28.70
2022-09-28T04:08:45.791Z,28.40
2022-09-28T04:09:45.738Z,29.30
2022-09-28T04:10:45.660Z,28.60
2022-09-28T04:12:02.798Z,28.40
2022-09-28T04:12:45.520Z,27.20
2022-09-28T04:13:45.470Z,29.90
2022-09-28T04:14:45.391Z,23.80
2022-09-28T04:15:45.327Z,26.00
2022-09-28T04:16:45.393Z,25.90
2022-09-28T04:17:45.208Z,26.00
2022-09-28T04:18:45.132Z,26.70
2022-09-28T04:19:46.306Z,26.90
2022-09-28T04:20:45.013Z,27.20
2022-09-28T04:21:44.933Z,29.10
2022-09-28T04:22:45.426Z,29.30
2022-09-28T04:23:44.814Z,30.30
2022-09-28T04:24:44.853Z,34.10
2022-09-28T04:25:44.735Z,35.30
2022-09-28T04:26:44.648Z,34.30
2022-09-28T04:27:44.565Z,35.00
2022-09-28T04:28:44.526Z,39.40
2022-09-28T04:29:44.425Z,39.40
2022-09-28T04:30:44.387Z,39.30
2022-09-28T04:31:44.348Z,36.30
2022-09-28T04:32:44.223Z,38.30
2022-09-28T04:33:44.120Z,37.80
2022-09-28T04:34:44.586Z,41.40
2022-09-28T04:35:44.054Z,43.10
2022-09-28T04:36:43.987Z,41.90
2022-09-28T04:37:43.916Z,44.60
2022-09-28T04:38:59.100Z,47.90
2022-09-28T04:39:48.060Z,47.40
2022-09-28T04:40:43.821Z,45.40
2022-09-28T04:41:43.646Z,46.80
2022-09-28T04:42:43.617Z,46.90
2022-09-28T04:43:43.526Z,45.80
2022-09-28T04:44:43.457Z,45.30
2022-09-28T04:45:43.434Z,42.50
2022-09-28T04:46:43.320Z,43.40
2022-09-28T04:47:43.247Z,40.90
2022-09-28T04:48:43.211Z,39.80
2022-09-28T04:49:43.946Z,42.60
2022-09-28T04:50:43.067Z,41.20
2022-09-28T04:51:42.990Z,44.20
2022-09-28T04:52:42.943Z,45.80
2022-09-28T04:53:42.861Z,44.60
2022-09-28T04:54:42.799Z,46.30
2022-09-28T04:55:42.772Z,46.60
2022-09-28T04:56:42.663Z,44.30
2022-09-28T04:57:42.562Z,43.60
2022-09-28T04:58:42.541Z,45.60
2022-09-28T04:59:42.444Z,43.70
2022-09-28T05:00:42.441Z,41.00
2022-09-28T05:01:44.372Z,42.10
2022-09-28T05:02:42.305Z,41.00
2022-09-28T05:03:42.191Z,41.10
2022-09-28T05:04:42.110Z,43.80
2022-09-28T05:05:42.046Z,45.10
2022-09-28T05:06:42.014Z,43.20
2022-09-28T05:07:41.952Z,38.80
2022-09-28T05:08:41.858Z,40.50
2022-09-28T05:09:41.801Z,37.20
2022-09-28T05:10:41.755Z,37.90
2022-09-28T05:11:41.648Z,40.50
2022-09-28T05:12:41.629Z,38.20
2022-09-28T05:13:43.856Z,36.60
2022-09-28T05:14:41.459Z,36.90
2022-09-28T05:15:41.416Z,40.70
2022-09-28T05:16:41.367Z,42.50
2022-09-28T05:17:41.298Z,43.00
2022-09-28T05:18:41.242Z,46.40
2022-09-28T05:19:41.162Z,41.50
2022-09-28T05:20:41.085Z,40.10
2022-09-28T05:21:41.010Z,41.00
2022-09-28T05:22:40.991Z,39.90
2022-09-28T05:23:40.887Z,43.10
2022-09-28T05:24:40.855Z,42.20
2022-09-28T05:25:40.766Z,41.20
2022-09-28T05:26:40.709Z,41.90
2022-09-28T05:27:40.638Z,43.30
2022-09-28T05:28:40.553Z,42.50
2022-09-28T05:29:40.500Z,41.70
2022-09-28T05:30:40.452Z,40.70
2022-09-28T05:31:40.449Z,39.10
2022-09-28T05:32:40.298Z,44.00
2022-09-28T05:33:40.237Z,43.70
2022-09-28T05:34:40.263Z,45.60
2022-09-28T05:35:40.134Z,46.00
2022-09-28T05:36:40.060Z,44.70
2022-09-28T05:37:39.976Z,44.50
2022-09-28T05:38:39.965Z,43.00
2022-09-28T05:39:40.033Z,42.80
2022-09-28T05:40:39.792Z,43.60
2022-09-28T05:41:39.718Z,44.50
2022-09-28T05:42:39.643Z,43.60
2022-09-28T05:43:39.605Z,41.90
2022-09-28T05:44:39.554Z,39.00
2022-09-28T05:45:39.531Z,37.90
2022-09-28T05:46:39.377Z,27.60
2022-09-28T05:47:39.333Z,23.90
2022-09-28T05:48:39.249Z,21.50
2022-09-28T05:49:39.956Z,17.70
2022-09-28T05:50:39.139Z,16.20
2022-09-28T05:51:39.125Z,19.00
2022-09-28T05:52:39.009Z,11.20
2022-09-28T05:53:38.942Z,14.80
2022-09-28T05:54:38.864Z,14.00
2022-09-28T05:55:38.860Z,14.90
2022-09-28T05:56:38.750Z,15.40
2022-09-28T05:57:38.667Z,13.40
2022-09-28T05:58:38.608Z,13.00
2022-09-28T05:59:38.549Z,14.90
2022-09-28T06:00:38.477Z,13.80
2022-09-28T06:01:38.525Z,14.30
2022-09-28T06:02:38.382Z,13.10
2022-09-28T06:03:38.435Z,14.40
2022-09-28T06:04:38.232Z,14.60
2022-09-28T06:05:38.151Z,14.50
2022-09-28T06:06:38.115Z,15.70
2022-09-28T06:07:38.322Z,16.30
2022-09-28T06:08:37.955Z,13.70
2022-09-28T06:09:37.890Z,12.80
2022-09-28T06:10:37.839Z,12.80
2022-09-28T06:11:37.788Z,14.50
2022-09-28T06:12:37.696Z,15.80
2022-09-28T06:13:37.677Z,16.40
2022-09-28T06:14:37.568Z,16.50
2022-09-28T06:15:37.519Z,20.10
2022-09-28T06:16:43.011Z,18.50
2022-09-28T06:17:37.388Z,20.20
2022-09-28T06:18:37.323Z,20.40
2022-09-28T06:19:38.791Z,19.50
2022-09-28T06:20:37.179Z,18.80
2022-09-28T06:21:37.114Z,18.70
2022-09-28T06:22:37.064Z,21.70
2022-09-28T06:23:37.012Z,20.70
2022-09-28T06:24:36.938Z,20.00
2022-09-28T06:25:36.872Z,20.40
2022-09-28T06:26:36.790Z,20.80
2022-09-28T06:27:36.732Z,20.10
2022-09-28T06:28:36.665Z,19.10
2022-09-28T06:29:36.599Z,21.10
2022-09-28T06:30:36.574Z,20.00
2022-09-28T06:31:38.024Z,18.60
2022-09-28T06:32:36.403Z,19.40
2022-09-28T06:33:36.359Z,20.00
2022-09-28T06:34:36.294Z,20.70
2022-09-28T06:35:36.220Z,18.40
2022-09-28T06:36:36.163Z,21.20
2022-09-28T06:37:36.862Z,16.90
2022-09-28T06:38:36.019Z,18.30
2022-09-28T06:39:35.965Z,14.10
2022-09-28T06:40:35.960Z,14.50
2022-09-28T06:41:35.823Z,15.10
2022-09-28T06:42:35.764Z,17.50
2022-09-28T06:43:36.512Z,10.40
2022-09-28T06:44:35.629Z,12.30
2022-09-28T06:45:35.579Z,11.10
2022-09-28T06:46:35.567Z,10.10
2022-09-28T06:47:35.444Z,11.50
2022-09-28T06:48:35.390Z,10.40
2022-09-28T06:49:36.087Z,11.80
2022-09-28T06:50:35.242Z,11.20
2022-09-28T06:51:35.188Z,6.90
2022-09-28T06:52:35.132Z,8.40
2022-09-28T06:53:35.064Z,10.90
2022-09-28T06:54:34.983Z,8.90
2022-09-28T06:55:34.940Z,7.90
2022-09-28T06:56:34.874Z,9.60
2022-09-28T06:57:34.801Z,7.80
2022-09-28T06:58:34.761Z,7.00
2022-09-28T06:59:34.662Z,8.00
2022-09-28T07:00:34.608Z,7.10
2022-09-28T07:01:34.620Z,8.90
2022-09-28T07:02:34.577Z,7.10
2022-09-28T07:03:34.409Z,6.70
2022-09-28T07:04:34.339Z,7.10
2022-09-28T07:05:34.268Z,6.80
2022-09-28T07:06:34.217Z,8.90
2022-09-28T07:07:34.178Z,10.00
2022-09-28T07:08:34.079Z,10.70
2022-09-28T07:09:36.934Z,10.80
2022-09-28T07:10:33.959Z,14.30
2022-09-28T07:11:33.902Z,13.90
2022-09-28T07:12:33.822Z,16.60
2022-09-28T07:13:53.951Z,14.50
2022-09-28T07:14:46.705Z,14.00
2022-09-28T07:15:33.628Z,15.50
2022-09-28T07:16:58.770Z,16.90
2022-09-28T07:17:35.538Z,18.50
2022-09-28T07:18:33.460Z,15.90
2022-09-28T07:19:33.405Z,16.90
2022-09-28T07:20:37.987Z,17.70
2022-09-28T07:21:33.259Z,19.80
2022-09-28T07:22:41.948Z,19.00
2022-09-28T07:23:36.661Z,17.70
2022-09-28T07:24:33.072Z,27.90
2022-09-28T07:25:33.810Z,19.80
2022-09-28T07:26:32.935Z,19.90
2022-09-28T07:27:32.852Z,20.50
2022-09-28T07:28:32.829Z,20.40
2022-09-28T07:29:32.718Z,18.80
2022-09-28T07:30:32.760Z,20.20
2022-09-28T07:31:34.908Z,13.80
2022-09-28T07:32:32.558Z,16.00
2022-09-28T07:33:32.493Z,15.40
2022-09-28T07:34:32.438Z,15.00
2022-09-28T07:35:32.349Z,14.80
2022-09-28T07:36:32.305Z,16.70
2022-09-28T07:37:32.331Z,18.80
2022-09-28T07:38:32.180Z,17.50
2022-09-28T07:39:32.072Z,13.10
2022-09-28T07:40:32.178Z,15.60
2022-09-28T07:41:31.948Z,11.80
2022-09-28T07:42:31.948Z,11.10
2022-09-28T07:43:31.847Z,11.80
2022-09-28T07:44:31.779Z,13.40
2022-09-28T07:45:31.784Z,13.00
2022-09-28T07:46:31.634Z,12.90
2022-09-28T07:47:35.081Z,13.20
2022-09-28T07:48:31.508Z,12.60
2022-09-28T07:49:31.465Z,10.30
2022-09-28T07:50:31.381Z,11.40
2022-09-28T07:51:31.299Z,11.10
2022-09-28T07:52:31.240Z,11.20
2022-09-28T07:53:31.195Z,11.50
2022-09-28T07:54:31.128Z,13.50
2022-09-28T07:55:31.080Z,14.60
2022-09-28T07:56:30.980Z,13.30
2022-09-28T07:57:30.913Z,11.70
2022-09-28T07:58:30.866Z,11.60
2022-09-28T07:59:30.789Z,12.10
2022-09-28T08:00:33.972Z,11.10
2022-09-28T08:01:31.251Z,11.30
2022-09-28T08:02:30.643Z,11.30
2022-09-28T08:03:30.541Z,12.40
2022-09-28T08:04:30.482Z,18.70
2022-09-28T08:05:30.396Z,14.20
2022-09-28T08:06:30.330Z,10.30
2022-09-28T08:07:30.285Z,11.60
2022-09-28T08:08:30.218Z,11.70
2022-09-28T08:09:30.145Z,11.20
2022-09-28T08:10:30.078Z,12.90
2022-09-28T08:11:30.019Z,14.10
2022-09-28T08:12:29.963Z,14.60
2022-09-28T08:13:32.304Z,17.10
2022-09-28T08:14:29.839Z,13.80
2022-09-28T08:15:29.772Z,13.70
2022-09-28T08:16:29.812Z,11.50
2022-09-28T08:17:29.625Z,11.20
2022-09-28T08:18:29.563Z,12.70
2022-09-28T08:19:29.787Z,11.90
2022-09-28T08:20:29.470Z,10.30
2022-09-28T08:21:29.375Z,11.60
2022-09-28T08:22:29.301Z,11.70
2022-09-28T08:23:29.241Z,13.20
2022-09-28T08:24:29.172Z,12.20
2022-09-28T08:25:29.129Z,12.10
2022-09-28T08:26:29.063Z,11.30
2022-09-28T08:27:29.021Z,10.90
2022-09-28T08:28:28.934Z,12.30
2022-09-28T08:29:28.864Z,10.70
2022-09-28T08:30:28.864Z,9.30
2022-09-28T08:31:28.802Z,10.40
2022-09-28T08:32:28.671Z,11.60
2022-09-28T08:33:28.624Z,13.50
2022-09-28T08:34:28.529Z,11.80
2022-09-28T08:35:28.462Z,11.00
2022-09-28T08:36:28.413Z,10.90
2022-09-28T08:37:30.638Z,11.10
2022-09-28T08:38:28.291Z,9.70
2022-09-28T08:39:28.221Z,9.20
2022-09-28T08:40:28.225Z,8.90
2022-09-28T08:41:28.089Z,9.60
2022-09-28T08:42:28.083Z,9.60
2022-09-28T08:43:27.991Z,7.30
2022-09-28T08:44:27.901Z,7.90
2022-09-28T08:45:27.832Z,8.20
2022-09-28T08:46:27.799Z,7.90
2022-09-28T08:47:27.692Z,8.20
2022-09-28T08:48:27.624Z,8.40
2022-09-28T08:49:27.643Z,9.00
2022-09-28T08:50:27.494Z,10.50
2022-09-28T08:51:27.431Z,9.20
2022-09-28T08:52:27.363Z,9.80
2022-09-28T08:53:27.313Z,7.50
2022-09-28T08:54:27.252Z,7.50
2022-09-28T08:55:30.246Z,9.30
2022-09-28T08:56:27.124Z,8.20
2022-09-28T08:57:27.059Z,6.40
2022-09-28T08:58:27.002Z,7.40
2022-09-28T08:59:26.918Z,8.70
2022-09-28T09:00:26.862Z,7.90
2022-09-28T09:01:29.901Z,7.70
2022-09-28T09:02:26.772Z,6.70
2022-09-28T09:03:26.666Z,7.80
2022-09-28T09:04:26.635Z,7.20
2022-09-28T09:05:26.526Z,6.50
2022-09-28T09:06:26.479Z,7.80
2022-09-28T09:07:26.415Z,5.80
2022-09-28T09:08:26.338Z,6.90
2022-09-28T09:09:26.287Z,6.50
2022-09-28T09:10:26.207Z,7.20
2022-09-28T09:11:26.167Z,6.50
2022-09-28T09:12:26.128Z,7.10
2022-09-28T09:13:27.225Z,6.00
2022-09-28T09:14:25.977Z,5.60
2022-09-28T09:15:25.902Z,5.10
2022-09-28T09:16:25.856Z,5.30
2022-09-28T09:17:25.773Z,5.20
2022-09-28T09:18:25.722Z,5.30
2022-09-28T09:19:25.632Z,5.50
2022-09-28T09:20:25.597Z,5.10
2022-09-28T09:21:25.511Z,5.90
2022-09-28T09:22:25.442Z,5.40
2022-09-28T09:23:25.367Z,4.70
2022-09-28T09:24:25.304Z,5.00
2022-09-28T09:25:25.545Z,5.60
2022-09-28T09:26:26.252Z,5.20
2022-09-28T09:27:25.122Z,5.50
2022-09-28T09:28:25.052Z,5.00
2022-09-28T09:29:24.988Z,5.00
2022-09-28T09:30:27.006Z,4.90
2022-09-28T09:31:24.912Z,5.00
2022-09-28T09:32:24.814Z,5.80
2022-09-28T09:33:24.739Z,5.40
2022-09-28T09:34:24.659Z,8.70
2022-09-28T09:35:28.542Z,24.20
2022-09-28T09:36:24.534Z,6.20
2022-09-28T09:37:24.490Z,5.70
2022-09-28T09:38:24.470Z,6.20
2022-09-28T09:39:24.331Z,6.00
2022-09-28T09:40:24.317Z,6.60
2022-09-28T09:41:24.209Z,6.50
2022-09-28T09:42:24.142Z,5.00
2022-09-28T09:43:28.077Z,5.10
2022-09-28T09:44:24.045Z,4.60
2022-09-28T09:45:23.950Z,4.30
2022-09-28T09:46:23.968Z,4.60
2022-09-28T09:47:23.838Z,4.60
2022-09-28T09:48:23.757Z,4.30
2022-09-28T09:49:23.827Z,4.40
2022-09-28T09:50:23.630Z,4.40
2022-09-28T09:51:23.558Z,5.10
2022-09-28T09:52:23.554Z,5.40
2022-09-28T09:53:23.462Z,4.80
2022-09-28T09:54:23.382Z,5.50
2022-09-28T09:55:29.010Z,4.90
2022-09-28T09:56:23.263Z,5.30
2022-09-28T09:57:23.196Z,5.30
2022-09-28T09:58:23.132Z,5.50
2022-09-28T09:59:23.075Z,5.60
2022-09-28T10:00:22.985Z,6.00
2022-09-28T10:01:22.958Z,5.30
2022-09-28T10:02:22.921Z,5.90
2022-09-28T10:03:22.808Z,5.50
2022-09-28T10:04:22.740Z,6.00
2022-09-28T10:05:22.681Z,6.00
2022-09-28T10:06:22.593Z,6.80
2022-09-28T10:07:22.564Z,6.30
2022-09-28T10:08:22.485Z,6.80
2022-09-28T10:09:22.432Z,7.00
2022-09-28T10:10:22.768Z,7.60
2022-09-28T10:11:22.950Z,8.10
2022-09-28T10:12:22.210Z,7.00
2022-09-28T10:13:22.246Z,8.80
2022-09-28T10:14:22.124Z,8.50
2022-09-28T10:15:22.029Z,7.60
2022-09-28T10:16:21.974Z,9.00
2022-09-28T10:17:21.906Z,9.30
2022-09-28T10:18:21.840Z,7.20
2022-09-28T10:19:21.796Z,7.50
2022-09-28T10:20:21.700Z,8.20
2022-09-28T10:21:21.645Z,6.50
2022-09-28T10:22:21.601Z,6.90
2022-09-28T10:23:21.503Z,6.40
2022-09-28T10:24:21.459Z,6.80
2022-09-28T10:25:21.397Z,7.30
2022-09-28T10:26:24.788Z,7.00
2022-09-28T10:27:21.283Z,6.90
2022-09-28T10:28:21.180Z,7.40
2022-09-28T10:29:21.131Z,7.30
2022-09-28T10:30:21.060Z,6.80
2022-09-28T10:31:21.046Z,7.20
2022-09-28T10:32:20.934Z,7.30
2022-09-28T10:33:20.872Z,7.10
2022-09-28T10:34:20.796Z,8.20
2022-09-28T10:35:20.726Z,7.80
2022-09-28T10:36:20.682Z,8.10
2022-09-28T10:37:20.705Z,7.00
2022-09-28T10:38:20.542Z,8.40
2022-09-28T10:39:20.470Z,5.60
2022-09-28T10:40:20.471Z,4.20
2022-09-28T10:41:20.360Z,4.90
2022-09-28T10:42:20.288Z,4.20
2022-09-28T10:43:21.048Z,3.70
2022-09-28T10:44:20.171Z,4.80
2022-09-28T10:45:20.111Z,4.40
2022-09-28T10:46:20.111Z,4.00
2022-09-28T10:47:20.000Z,3.70
2022-09-28T10:48:19.908Z,4.30
2022-09-28T10:49:19.834Z,4.60
2022-09-28T10:50:19.784Z,4.50
2022-09-28T10:51:19.714Z,4.90
2022-09-28T10:52:19.629Z,4.50
2022-09-28T10:53:19.585Z,4.80
2022-09-28T10:54:19.762Z,3.70
2022-09-28T10:55:19.464Z,4.20
2022-09-28T10:56:19.391Z,3.50
2022-09-28T10:57:19.319Z,3.80
2022-09-28T10:58:19.246Z,4.00
2022-09-28T10:59:19.192Z,4.30
2022-09-28T11:00:19.120Z,4.20
2022-09-28T11:01:19.124Z,3.90
2022-09-28T11:02:19.033Z,3.80
2022-09-28T11:03:19.023Z,4.10
2022-09-28T11:04:19.019Z,5.10
2022-09-28T11:05:19.369Z,3.70
2022-09-28T11:06:18.754Z,4.00
2022-09-28T11:07:19.878Z,3.80
2022-09-28T11:08:18.624Z,3.80
2022-09-28T11:09:18.596Z,3.80
2022-09-28T11:10:18.512Z,4.30
2022-09-28T11:11:18.439Z,3.80
2022-09-28T11:12:18.360Z,4.60
2022-09-28T11:13:18.315Z,4.50
2022-09-28T11:14:18.265Z,4.40
2022-09-28T11:15:18.149Z,4.20
2022-09-28T11:16:18.156Z,4.30
2022-09-28T11:17:18.038Z,5.00
2022-09-28T11:18:17.958Z,4.60
2022-09-28T11:19:18.040Z,5.00
2022-09-28T11:20:17.847Z,4.30
2022-09-28T11:21:17.765Z,3.70
2022-09-28T11:22:17.703Z,4.10
2022-09-28T11:23:17.641Z,3.80
2022-09-28T11:24:19.270Z,3.60
2022-09-28T11:25:19.912Z,4.10
2022-09-28T11:26:18.805Z,4.40
2022-09-28T11:27:17.394Z,4.30
2022-09-28T11:28:17.314Z,4.20
2022-09-28T11:29:17.273Z,4.00
2022-09-28T11:30:17.229Z,4.50
2022-09-28T11:31:17.215Z,4.60
2022-09-28T11:32:17.059Z,4.40
2022-09-28T11:33:17.005Z,4.80
2022-09-28T11:34:17.088Z,4.20
2022-09-28T11:35:17.014Z,4.60
2022-09-28T11:36:16.821Z,4.50
2022-09-28T11:37:16.764Z,4.30
2022-09-28T11:38:16.670Z,4.20
2022-09-28T11:39:16.610Z,3.90
2022-09-28T11:40:16.688Z,4.50
2022-09-28T11:41:16.481Z,4.60
2022-09-28T11:42:16.728Z,4.30
2022-09-28T11:43:16.945Z,4.90
2022-09-28T11:44:16.294Z,4.50
2022-09-28T11:45:16.224Z,4.50
2022-09-28T11:46:16.282Z,4.70
2022-09-28T11:47:16.119Z,3.80
2022-09-28T11:48:16.021Z,3.90
2022-09-28T11:49:15.999Z,4.50
2022-09-28T11:50:18.958Z,3.50
2022-09-28T11:51:15.872Z,3.50
2022-09-28T11:52:15.770Z,3.70
2022-09-28T11:53:15.710Z,3.60
2022-09-28T11:54:15.791Z,4.00
2022-09-28T11:55:15.586Z,3.90
2022-09-28T11:56:15.521Z,3.40
2022-09-28T11:57:15.448Z,3.80
2022-09-28T11:58:15.398Z,3.50
2022-09-28T11:59:15.328Z,3.70
2022-09-28T12:00:15.317Z,12.60
2022-09-28T12:01:18.907Z,3.80
2022-09-28T12:02:15.211Z,3.60
2022-09-28T12:03:15.138Z,3.70
2022-09-28T12:04:14.993Z,3.30
2022-09-28T12:05:20.483Z,3.20
2022-09-28T12:06:14.874Z,3.30
2022-09-28T12:07:16.345Z,3.30
2022-09-28T12:08:14.744Z,3.40
2022-09-28T12:09:14.739Z,2.80
2022-09-28T12:10:14.679Z,3.20
2022-09-28T12:11:14.539Z,3.30
2022-09-28T12:12:14.486Z,2.90
2022-09-28T12:13:14.443Z,2.90
2022-09-28T12:14:14.397Z,2.70
2022-09-28T12:15:14.293Z,3.10
2022-09-28T12:17:19.241Z,3.40
2022-09-28T12:18:14.204Z,3.60
2022-09-28T12:19:14.089Z,3.50
2022-09-28T12:20:14.025Z,3.20
2022-09-28T12:21:13.895Z,3.20
2022-09-28T12:22:13.829Z,3.50
2022-09-28T12:23:13.778Z,3.60
2022-09-28T12:24:13.718Z,3.60
2022-09-28T12:25:16.059Z,3.50
2022-09-28T12:26:13.595Z,3.50
2022-09-28T12:27:13.505Z,4.20
2022-09-28T12:28:13.460Z,4.90
2022-09-28T12:29:13.477Z,5.20
2022-09-28T12:30:13.419Z,4.00
2022-09-28T12:31:13.331Z,6.10
2022-09-28T12:32:13.216Z,3.80
2022-09-28T12:33:13.129Z,4.30
2022-09-28T12:34:13.063Z,4.10
2022-09-28T12:35:13.001Z,4.40
2022-09-28T12:36:12.950Z,4.00
2022-09-28T12:37:12.913Z,4.00
2022-09-28T12:38:12.811Z,4.20
2022-09-28T12:39:30.938Z,4.60
2022-09-28T12:40:12.724Z,4.60
2022-09-28T12:41:12.623Z,3.60
2022-09-28T12:42:12.605Z,3.60
2022-09-28T12:43:15.807Z,3.10
2022-09-28T12:44:12.418Z,3.50
2022-09-28T12:45:12.362Z,4.20
2022-09-28T12:46:13.108Z,4.80
2022-09-28T12:47:12.261Z,3.70
2022-09-28T12:48:12.185Z,3.60
2022-09-28T12:51:11.984Z,3.30
2022-09-28T12:52:11.906Z,3.40
2022-09-28T12:53:11.831Z,3.50
2022-09-28T12:54:11.844Z,3.40
2022-09-28T12:55:12.502Z,3.50
2022-09-28T12:56:11.644Z,3.60
2022-09-28T12:57:11.584Z,3.70
2022-09-28T12:58:11.524Z,3.40
2022-09-28T12:59:11.513Z,3.80
2022-09-28T13:00:11.459Z,3.80
2022-09-28T13:01:11.385Z,3.90
2022-09-28T13:02:11.309Z,3.40
2022-09-28T13:03:11.219Z,3.80
2022-09-28T13:04:13.347Z,3.80
2022-09-28T13:05:11.079Z,3.90